Latest Weather Observations for Warra

IDT60801

Issued at 1:31 pm EST Saturday 5 September 2015 (issued every 30 minutes, with the page automatically refreshed every 10 minutes)

About weather observations | Map of weather stations | Latest weather observations for TAS | Other Formats
Station Details ID: 097024 Name: WARRA Lat: -43.06 Lon: 146.70 Height: 495.0 m
Data from the previous 72 hours. | See also: Recent months at Warra
Date/Time
EST
Temp
°C
App
Temp
°C
Dew
Point
Rel
Hum
%
Delta-T
°C
Wind Press
QNH
hPa
Press
MSL
hPa
Rain
since 9 am
mm
Dir
 
Spd
km/h
Gust
km/h
Spd
kts
Gust
kts
05/01:30pm 6.8 4.1 5.4 91 0.6 E 9 13 5 7 - - 0.0
05/01:00pm 6.5 3.6 4.7 88 0.8 SE 9 15 5 8 - - 0.0
05/12:30pm 6.3 3.1 4.9 91 0.6 SSE 11 19 6 10 - - 0.0
05/12:00pm 7.8 5.2 4.2 78 1.6 SSE 7 13 4 7 - - 0.0
05/11:30am 6.9 4.4 4.7 86 1.0 SW 7 11 4 6 - - 0.0
05/11:00am 8.4 5.6 5.0 79 1.6 WSW 9 17 5 9 - - 0.0
05/10:30am 6.4 3.9 4.7 89 0.8 SSW 7 9 4 5 - - 0.0
05/10:00am 6.4 3.9 3.6 82 1.2 NW 6 17 3 9 - - 0.0
05/09:30am 6.1 3.6 3.9 86 1.0 SSW 6 13 3 7 - - 0.0
05/09:00am 5.5 2.6 4.9 96 0.3 WSW 9 19 5 10 - - 7.2
05/08:30am 5.1 2.7 5.1 100 0.0 W 7 11 4 6 - - 7.2
05/08:00am 4.5 2.5 4.5 100 0.0 SW 4 9 2 5 - - 7.2
05/07:30am 4.2 1.6 4.2 100 0.0 W 7 11 4 6 - - 7.2
05/07:00am 3.6 0.9 3.6 100 0.0 WSW 7 11 4 6 - - 7.2
05/06:30am 3.4 0.6 3.4 100 0.0 W 7 15 4 8 - - 7.2
05/06:00am 3.3 0.1 3.3 100 0.0 NNW 9 15 5 8 - - 7.2
05/05:30am 3.5 0.4 3.5 100 0.0 SSW 9 17 5 9 - - 7.0
05/05:00am 3.3 -0.3 3.2 99 0.0 WSW 11 22 6 12 - - 6.8
05/04:30am 3.4 -1.4 2.7 95 0.3 WSW 17 30 9 16 - - 6.8
05/04:00am 3.7 -0.8 1.9 88 0.7 WSW 15 30 8 16 - - 6.8
05/03:30am 3.3 0.2 1.2 86 0.8 W 7 17 4 9 - - 6.8
05/03:00am 3.8 -0.7 2.2 89 0.7 WSW 15 37 8 20 - - 6.8
05/02:30am 3.9 -1.2 3.0 94 0.4 WSW 19 39 10 21 - - 6.8
05/02:00am 4.1 -2.5 4.0 99 0.0 WSW 28 48 15 26 - - 6.8
05/01:46am 4.2 -2.4 4.2 100 0.0 WSW 28 46 15 25 - - 6.8
05/01:30am 4.5 -0.9 4.5 100 0.0 SW 22 39 12 21 - - 6.8
05/01:00am 4.9 0.5 4.9 100 0.0 SW 17 32 9 17 - - 6.6
05/12:30am 5.3 0.6 5.3 100 0.0 WSW 19 32 10 17 - - 6.6
05/12:00am 5.7 2.3 5.7 100 0.0 WSW 13 22 7 12 - - 6.4
 
Date/Time
EST
Temp
°C
App
Temp
°C
Dew
Point
Rel
Hum
%
Delta-T
°C
Wind Press
QNH
hPa
Press
MSL
hPa
Rain
since 9 am
mm
Dir
 
Spd
km/h
Gust
km/h
Spd
kts
Gust
kts
04/11:30pm 5.8 1.6 5.7 99 0.0 W 17 33 9 18 - - 5.8
04/11:00pm 5.8 1.6 5.7 99 0.0 WNW 17 44 9 24 - - 5.4
04/10:30pm 5.6 1.4 5.6 100 0.0 W 17 33 9 18 - - 5.4
04/10:00pm 5.7 1.1 5.7 100 0.0 W 19 32 10 17 - - 4.8
04/09:30pm 5.6 1.8 5.6 100 0.0 WNW 15 30 8 16 - - 4.0
04/09:00pm 5.7 1.1 5.6 99 0.0 WNW 19 44 10 24 - - 3.8
04/08:30pm 5.6 1.4 5.5 99 0.0 WNW 17 35 9 19 - - 3.4
04/08:00pm 5.4 2.3 5.4 100 0.0 WNW 11 19 6 10 - - 3.2
04/07:30pm 5.4 2.2 5.3 99 0.0 WNW 11 22 6 12 - - 2.8
04/07:00pm 5.4 1.1 5.3 99 0.0 WNW 17 41 9 22 - - 2.2
04/06:30pm 5.6 1.7 5.5 99 0.0 WNW 15 28 8 15 - - 2.0
04/06:00pm 5.4 0.5 5.3 99 0.0 WNW 20 43 11 23 - - 1.8
04/05:30pm 5.5 -0.2 5.1 97 0.2 WNW 24 41 13 22 - - 1.6
04/05:00pm 5.6 -0.8 5.0 96 0.3 W 28 50 15 27 - - 1.4
04/04:30pm 6.1 -0.2 5.5 96 0.3 W 28 61 15 33 - - 1.2
04/04:12pm 6.3 -0.1 5.3 93 0.5 WNW 28 50 15 27 - - 1.2
04/04:00pm 6.3 0.4 5.7 96 0.3 W 26 44 14 24 - - 1.2
04/03:32pm 6.6 0.3 5.6 93 0.5 WNW 28 52 15 28 - - 1.0
04/03:30pm 6.6 0.7 5.7 94 0.4 WNW 26 52 14 28 - - 1.0
04/03:06pm 6.7 0.4 5.8 94 0.4 W 28 46 15 25 - - 0.6
04/03:00pm 7.0 1.2 6.1 94 0.4 W 26 46 14 25 - - 0.4
04/02:30pm 7.7 4.4 6.2 90 0.7 W 13 30 7 16 - - 0.0
04/02:00pm 8.2 3.0 5.5 83 1.3 WNW 22 37 12 20 - - 0.0
04/01:30pm 8.8 3.7 4.0 72 2.2 WNW 20 33 11 18 - - 0.0
04/01:02pm 9.5 2.9 4.1 69 2.4 WNW 28 54 15 29 - - 0.0
04/01:00pm 9.3 3.0 3.7 68 2.5 WNW 26 54 14 29 - - 0.0
04/12:30pm 9.6 3.4 4.4 70 2.4 WNW 26 65 14 35 - - 0.0
04/12:23pm 8.8 1.4 4.0 72 2.2 WNW 32 65 17 35 - - 0.0
04/12:09pm 9.5 2.8 3.7 67 2.6 WNW 28 46 15 25 - - 0.0
04/12:00pm 9.6 3.3 4.0 68 2.5 WNW 26 46 14 25 - - 0.0
04/11:30am 9.2 1.7 3.4 67 2.6 WNW 32 63 17 34 - - 0.0
04/11:00am 8.6 1.5 3.6 71 2.2 W 30 54 16 29 - - 0.0
04/10:30am 8.6 1.5 3.8 72 2.1 WNW 30 54 16 29 - - 0.0
04/10:00am 8.2 1.5 3.7 73 2.0 W 28 52 15 28 - - 0.0
04/09:38am 7.9 1.1 3.2 72 2.1 W 28 48 15 26 - - 0.0
04/09:30am 7.6 1.9 2.7 71 2.1 W 22 46 12 25 - - 0.0
04/09:00am 6.3 0.9 2.4 76 1.6 W 20 50 11 27 - - 0.2
04/08:30am 5.1 0.2 2.3 82 1.2 W 17 32 9 17 - - 0.2
04/08:00am 4.7 -0.6 1.7 81 1.2 W 19 35 10 19 - - 0.2
04/07:30am 4.3 -0.7 1.2 80 1.2 WNW 17 28 9 15 - - 0.2
04/07:00am 4.0 -0.7 0.9 80 1.2 WNW 15 37 8 20 - - 0.2
04/06:30am 3.7 -1.4 0.6 80 1.2 NW 17 35 9 19 - - 0.2
04/06:00am 3.7 -0.6 0.7 81 1.2 WNW 13 26 7 14 - - 0.2
04/05:30am 3.6 -0.7 0.7 81 1.1 WNW 13 28 7 15 - - 0.2
04/05:00am 3.2 -2.0 -0.1 79 1.3 WNW 17 32 9 17 - - 0.2
04/04:30am 3.0 -1.9 -0.3 79 1.3 NW 15 28 8 15 - - 0.2
04/04:00am 2.2 -2.8 -0.9 80 1.2 NW 15 30 8 16 - - 0.2
04/03:30am 2.2 -3.5 -0.9 80 1.2 NW 19 35 10 19 - - 0.2
04/03:00am 2.3 -3.1 -1.1 78 1.3 NW 17 30 9 16 - - 0.2
04/02:30am 2.6 -2.4 -1.2 76 1.4 NW 15 26 8 14 - - 0.2
04/02:00am 2.7 -2.3 -1.5 74 1.5 WNW 15 22 8 12 - - 0.2
04/01:30am 2.9 -2.5 -1.3 74 1.6 WNW 17 24 9 13 - - 0.2
04/01:00am 2.5 -2.9 -1.5 75 1.5 NW 17 30 9 16 - - 0.2
04/12:30am 2.5 -2.5 -1.3 76 1.4 WNW 15 24 8 13 - - 0.2
04/12:00am 2.5 -2.5 -0.9 78 1.3 WNW 15 24 8 13 - - 0.2
 
Date/Time
EST
Temp
°C
App
Temp
°C
Dew
Point
Rel
Hum
%
Delta-T
°C
Wind Press
QNH
hPa
Press
MSL
hPa
Rain
since 9 am
mm
Dir
 
Spd
km/h
Gust
km/h
Spd
kts
Gust
kts
03/11:30pm 2.3 -2.3 -1.3 77 1.3 WNW 13 22 7 12 - - 0.2
03/11:00pm 2.6 -2.0 -1.2 76 1.4 WNW 13 24 7 13 - - 0.2
03/10:30pm 2.6 -1.2 -0.5 80 1.2 W 9 17 5 9 - - 0.2
03/10:00pm 2.4 -2.5 -0.2 83 1.0 WNW 15 24 8 13 - - 0.2
03/09:30pm 1.2 -3.1 -1.4 83 0.9 WNW 11 20 6 11 - - 0.2
03/09:00pm 1.0 -2.9 -1.2 85 0.8 WNW 9 15 5 8 - - 0.2
03/08:30pm 0.8 -2.7 -1.4 85 0.8 NNW 7 11 4 6 - - 0.2
03/08:00pm 1.6 -1.3 -1.1 82 1.0 W 4 11 2 6 - - 0.2
03/07:30pm 1.9 -1.6 -1.3 79 1.2 WNW 7 13 4 7 - - 0.2
03/07:00pm 2.7 -1.2 -1.3 75 1.5 W 9 20 5 11 - - 0.2
03/06:30pm 2.8 -2.3 -1.7 72 1.7 WSW 15 26 8 14 - - 0.2
03/06:00pm 3.0 -2.0 -1.5 72 1.7 WSW 15 22 8 12 - - 0.2
03/05:30pm 3.5 -1.1 -1.3 71 1.8 SW 13 20 7 11 - - 0.2
03/05:00pm 3.8 -2.0 -1.2 70 1.9 WSW 19 28 10 15 - - 0.2
03/04:30pm 4.3 -1.1 -1.3 67 2.1 WSW 17 24 9 13 - - 0.2
03/04:00pm 5.6 0.7 -0.2 66 2.3 SW 15 28 8 15 - - 0.2
03/03:30pm 5.8 0.9 -0.5 64 2.5 WSW 15 24 8 13 - - 0.2
03/03:00pm 6.1 1.2 -0.6 62 2.6 WSW 15 26 8 14 - - 0.2
03/02:30pm 7.1 1.7 -1.3 55 3.3 WSW 17 28 9 15 - - 0.2
03/02:00pm 7.3 2.9 0.1 60 2.9 SSW 13 24 7 13 - - 0.2
03/01:30pm 7.9 3.1 0.4 59 3.1 WSW 15 24 8 13 - - 0.2
03/01:00pm 6.9 2.1 0.4 63 2.6 SW 15 26 8 14 - - 0.2
03/12:30pm 6.6 2.1 -0.1 62 2.7 SSW 13 24 7 13 - - 0.2
03/12:00pm 8.0 3.8 1.4 63 2.8 WSW 13 22 7 12 - - 0.2
03/11:30am 6.7 2.5 1.4 69 2.2 WSW 13 24 7 13 - - 0.2
03/11:00am 6.2 1.9 1.3 71 2.0 WSW 13 26 7 14 - - 0.2
03/10:30am 6.3 2.2 2.0 74 1.8 SW 13 26 7 14 - - 0.2
03/10:00am 5.7 1.8 3.4 85 1.0 SW 13 20 7 11 - - 0.2
03/09:30am 4.6 1.0 3.1 90 0.6 SW 11 19 6 10 - - 0.0
03/09:00am 4.2 0.3 3.3 94 0.4 SW 13 20 7 11 - - 5.6
03/08:30am 5.0 1.8 5.0 100 0.0 SW 11 17 6 9 - - 5.6
03/08:00am 4.0 0.6 4.0 100 0.0 SW 11 20 6 11 - - 5.6
03/07:30am 4.0 1.4 4.0 100 0.0 SSW 7 15 4 8 - - 5.2
03/07:00am 4.1 1.5 4.1 100 0.0 SW 7 15 4 8 - - 5.2
03/06:30am 4.1 0.7 4.1 100 0.0 WSW 11 19 6 10 - - 5.0
03/06:00am 4.2 0.8 4.2 100 0.0 WSW 11 19 6 10 - - 5.0
03/05:30am 3.6 0.9 3.6 100 0.0 WNW 7 11 4 6 - - 5.0
03/05:00am 3.9 1.2 3.9 100 0.0 WSW 7 11 4 6 - - 5.0
03/04:30am 4.3 0.6 4.3 100 0.0 W 13 22 7 12 - - 4.8
03/04:00am 4.4 0.3 4.4 100 0.0 W 15 24 8 13 - - 4.8
03/03:30am 4.8 0.0 4.8 100 0.0 WSW 19 32 10 17 - - 4.6
03/03:00am 5.1 1.1 5.1 100 0.0 WSW 15 32 8 17 - - 4.0
03/02:30am 5.3 0.6 5.3 100 0.0 WSW 19 28 10 15 - - 3.8
03/02:00am 5.8 1.6 5.8 100 0.0 WSW 17 26 9 14 - - 3.2
03/01:30am 6.7 4.2 6.7 100 0.0 SW 9 17 5 9 - - 2.2
03/01:00am 6.8 4.9 6.8 100 0.0 ENE 6 11 3 6 - - 1.2
03/12:30am 7.2 3.7 7.1 99 0.0 WNW 15 26 8 14 - - 1.0
03/12:00am 7.3 3.4 7.2 99 0.0 WNW 17 33 9 18 - - 0.8
 
Date/Time
EST
Temp
°C
App
Temp
°C
Dew
Point
Rel
Hum
%
Delta-T
°C
Wind Press
QNH
hPa
Press
MSL
hPa
Rain
since 9 am
mm
Dir
 
Spd
km/h
Gust
km/h
Spd
kts
Gust
kts
02/11:30pm 7.1 3.2 7.1 100 0.0 W 17 28 9 15 - - 0.8
02/11:00pm 6.2 4.2 6.2 100 0.0 NNW 6 13 3 7 - - 0.8
02/10:30pm 6.2 4.0 6.2 100 0.0 NNW 7 13 4 7 - - 0.8
02/10:00pm 6.5 3.6 6.4 99 0.0 NW 11 20 6 11 - - 0.6
02/09:30pm 6.4 3.8 6.3 99 0.0 NW 9 15 5 8 - - 0.4
02/09:00pm 6.5 4.3 6.4 99 0.0 NNW 7 11 4 6 - - 0.2
02/08:30pm 6.6 3.6 6.0 96 0.3 NW 11 15 6 8 - - 0.2
02/08:00pm 7.0 3.9 5.6 91 0.6 NW 11 17 6 9 - - 0.0
02/07:30pm 6.4 4.2 6.0 97 0.2 NW 7 9 4 5 - - 0.0
02/07:00pm 5.9 3.6 5.6 98 0.1 W 7 9 4 5 - - 0.0
02/06:30pm 6.2 3.5 5.8 97 0.2 WSW 9 13 5 7 - - 0.0
02/06:00pm 6.3 4.0 5.6 95 0.3 WSW 7 11 4 6 - - 0.0
02/05:30pm 6.6 4.2 5.4 92 0.5 SW 7 11 4 6 - - 0.0
02/05:00pm 6.9 3.8 5.4 90 0.7 WSW 11 15 6 8 - - 0.0
02/04:30pm 7.1 4.4 5.4 89 0.8 W 9 15 5 8 - - 0.0
02/04:00pm 7.3 4.1 5.1 86 1.0 WSW 11 19 6 10 - - 0.0
02/03:30pm 7.4 4.4 5.9 90 0.7 W 11 15 6 8 - - 0.0
02/03:00pm 8.0 5.5 4.9 81 1.4 WSW 7 11 4 6 - - 0.0
02/02:30pm 9.2 5.9 2.3 62 3.0 NW 9 13 5 7 - - 0.0
02/02:00pm 9.5 6.7 3.0 64 2.9 SW 7 11 4 6 - - 0.0

Other Formats:

Comma delimited format used in spreadsheet applications
http://www.bom.gov.au/fwo/IDT60801/IDT60801.95962.axf

JavaScript Object Notation format (JSON) in row-major order
http://www.bom.gov.au/fwo/IDT60801/IDT60801.95962.json